Time;durP1;ratioP1;P1;durP2;ratioP2;P2;SDS_P1;SDS_P2;PMS_P1;PMS_P2;Temp;Humidity;BMP_temperature;BMP_pressure;BME280_temperature;BME280_humidity;BME280_pressure;Samples;Min_cycle;Max_cycle;Signal;HPM_P1;HPM_P2
2022/03/20 00:01:09;;;;;;;9.93;9.63;;;4.50;99.90;;;;;;5107708;28;20226;-78
2022/03/20 00:03:38;;;;;;;9.87;9.57;;;4.50;99.90;;;;;;5118465;28;20229;-80
2022/03/20 00:06:07;;;;;;;10.17;9.87;;;4.50;99.90;;;;;;5105530;28;20230;-81
2022/03/20 00:08:37;;;;;;;9.93;9.63;;;4.50;99.90;;;;;;5116140;28;20222;-77
2022/03/20 00:11:06;;;;;;;10.07;9.77;;;4.50;99.90;;;;;;5109187;28;20229;-80
2022/03/20 00:13:45;;;;;;;10.03;9.73;;;4.50;99.90;;;;;;5099267;28;20233;-79
2022/03/20 00:16:14;;;;;;;9.67;9.37;;;4.50;99.90;;;;;;5098715;28;20245;-80
2022/03/20 00:18:43;;;;;;;10.10;9.80;;;4.40;99.90;;;;;;5099752;28;20233;-80
2022/03/20 00:21:13;;;;;;;9.93;9.63;;;4.40;99.90;;;;;;5099677;28;20241;-80
2022/03/20 00:23:43;;;;;;;10.03;9.73;;;4.40;99.90;;;;;;5100504;28;20321;-79
2022/03/20 00:26:12;;;;;;;10.10;9.80;;;4.30;99.90;;;;;;5100458;28;20238;-79
2022/03/20 00:28:51;;;;;;;10.10;9.80;;;4.30;99.90;;;;;;5100290;28;20221;-80
2022/03/20 00:31:19;;;;;;;10.10;9.80;;;4.40;99.90;;;;;;5099389;28;20233;-79
2022/03/20 00:33:49;;;;;;;9.80;9.50;;;4.40;99.90;;;;;;5099774;28;20241;-81
2022/03/20 00:36:16;;;;;;;10.00;9.70;;;4.50;99.90;;;;;;5144790;22;20233;-86
2022/03/20 00:38:48;;;;;;;9.77;9.47;;;4.50;99.90;;;;;;5141701;27;20204;-86
2022/03/20 00:41:18;;;;;;;10.20;9.90;;;4.40;99.90;;;;;;5141183;27;20212;-86
2022/03/20 00:43:50;;;;;;;9.90;9.60;;;4.40;99.90;;;;;;5111459;28;20224;-86
2022/03/20 00:46:18;;;;;;;9.87;9.57;;;4.40;99.90;;;;;;5084249;28;20238;-86
2022/03/20 00:48:46;;;;;;;10.03;9.73;;;4.40;99.90;;;;;;5079802;28;20230;-86
2022/03/20 00:51:15;;;;;;;9.70;9.40;;;4.40;99.90;;;;;;5079188;28;20233;-86
2022/03/20 00:53:45;;;;;;;9.83;9.53;;;4.30;99.90;;;;;;5079392;28;20234;-86
2022/03/20 00:56:14;;;;;;;9.80;9.50;;;4.30;99.90;;;;;;5088747;28;20332;-85
2022/03/20 00:58:44;;;;;;;9.90;9.60;;;4.40;99.90;;;;;;5088996;28;20771;-85
2022/03/20 01:01:23;;;;;;;10.00;9.70;;;4.40;99.90;;;;;;5079614;28;20270;-85
2022/03/20 01:03:51;;;;;;;10.03;9.73;;;4.40;99.90;;;;;;5080074;28;20244;-86
2022/03/20 01:06:22;;;;;;;10.20;9.90;;;4.50;99.90;;;;;;5079609;28;20237;-86
2022/03/20 01:08:53;;;;;;;9.80;9.50;;;4.50;99.90;;;;;;5079454;28;20229;-86
2022/03/20 01:11:21;;;;;;;10.10;9.80;;;4.50;99.90;;;;;;5079271;28;20240;-85
2022/03/20 01:13:51;;;;;;;9.90;9.60;;;4.50;99.90;;;;;;5079087;28;20230;-86
2022/03/20 01:16:21;;;;;;;10.00;9.70;;;4.50;99.90;;;;;;5086197;28;20233;-86
2022/03/20 01:18:49;;;;;;;9.90;9.60;;;4.50;99.90;;;;;;5083286;28;20264;-86
2022/03/20 01:21:17;;;;;;;10.00;9.70;;;4.50;99.90;;;;;;5099515;28;20233;-86
2022/03/20 01:23:46;;;;;;;10.17;9.87;;;4.50;99.90;;;;;;5099266;28;20225;-86
2022/03/20 01:26:16;;;;;;;10.00;9.70;;;4.50;99.90;;;;;;5099261;28;20709;-86
2022/03/20 01:28:46;;;;;;;10.00;9.70;;;4.50;99.90;;;;;;5091222;28;20332;-86
2022/03/20 01:31:16;;;;;;;10.10;9.80;;;4.50;99.90;;;;;;5099838;28;20221;-86
2022/03/20 01:33:47;;;;;;;10.10;9.80;;;4.50;99.90;;;;;;5099136;28;20268;-86
2022/03/20 01:36:15;;;;;;;10.03;9.73;;;4.50;99.90;;;;;;5099253;28;20252;-86
2022/03/20 01:38:43;;;;;;;10.23;9.93;;;4.50;99.90;;;;;;5099866;28;20229;-85
2022/03/20 01:41:13;;;;;;;10.10;9.80;;;4.50;99.90;;;;;;5099103;28;20226;-85
2022/03/20 01:43:51;;;;;;;10.00;9.70;;;4.50;99.90;;;;;;5087988;28;20234;-85
2022/03/20 01:46:21;;;;;;;10.17;9.87;;;4.40;99.90;;;;;;5078734;28;20226;-85
2022/03/20 01:48:52;;;;;;;9.90;9.60;;;4.50;99.90;;;;;;5079124;28;20258;-85
2022/03/20 01:52:10;;;;;;;10.10;9.80;;;4.40;99.90;;;;;;5078068;28;20249;-85
2022/03/20 01:54:17;;;;;;;10.23;9.93;;;4.50;99.90;;;;;;5078345;28;20333;-85
2022/03/20 01:56:56;;;;;;;10.10;9.80;;;4.40;99.90;;;;;;5079129;28;20216;-86
2022/03/20 01:59:27;;;;;;;10.07;9.77;;;4.40;99.90;;;;;;5091050;28;20268;-86
2022/03/20 02:01:55;;;;;;;10.07;9.77;;;4.40;99.90;;;;;;5085188;28;20241;-85
2022/03/20 02:04:34;;;;;;;10.10;9.80;;;4.40;99.90;;;;;;5087000;28;20257;-85
2022/03/20 02:07:03;;;;;;;10.20;9.90;;;4.40;99.90;;;;;;5086448;28;20265;-85
2022/03/20 02:09:31;;;;;;;10.00;9.70;;;4.40;99.90;;;;;;5093916;28;20229;-85
2022/03/20 02:12:03;;;;;;;10.07;9.77;;;4.40;99.90;;;;;;5082682;28;20312;-85
2022/03/20 02:14:38;;;;;;;9.97;9.67;;;4.40;99.90;;;;;;5095182;28;20233;-85
2022/03/20 02:17:10;;;;;;;10.03;9.73;;;4.40;99.90;;;;;;5082855;28;20271;-85
2022/03/20 02:19:48;;;;;;;10.10;9.80;;;4.40;99.90;;;;;;5084908;28;20234;-85
2022/03/20 02:22:27;;;;;;;10.13;9.83;;;4.40;99.90;;;;;;5083081;28;20264;-85
2022/03/20 02:24:55;;;;;;;10.00;9.70;;;4.50;99.90;;;;;;5080866;28;20218;-85
2022/03/20 02:27:27;;;;;;;9.87;9.57;;;4.40;99.90;;;;;;5081053;28;20222;-85
2022/03/20 02:30:02;;;;;;;10.07;9.77;;;4.40;99.90;;;;;;5081340;28;20241;-85
2022/03/20 02:32:41;;;;;;;10.03;9.73;;;4.40;99.90;;;;;;5081177;28;20256;-85
2022/03/20 02:35:15;;;;;;;10.13;9.83;;;4.40;99.90;;;;;;5080402;28;20245;-87
2022/03/20 02:40:35;;;;;;;10.17;9.87;;;4.30;99.90;;;;;;5077082;28;20230;-85
2022/03/20 02:43:04;;;;;;;10.10;9.80;;;4.20;99.90;;;;;;5081345;28;20299;-86
2022/03/20 02:45:34;;;;;;;10.10;9.80;;;4.20;99.90;;;;;;5098805;28;20221;-86
2022/03/20 02:48:05;;;;;;;10.17;9.87;;;4.20;99.90;;;;;;5102153;28;20211;-85
2022/03/20 02:50:41;;;;;;;10.03;9.73;;;4.20;99.90;;;;;;5100809;28;20226;-85
2022/03/20 02:53:30;;;;;;;10.10;9.80;;;4.10;99.90;;;;;;5080873;28;20234;-86
2022/03/20 02:56:00;;;;;;;9.90;9.60;;;4.10;99.90;;;;;;5080072;28;20237;-86
2022/03/20 02:58:28;;;;;;;10.07;9.77;;;4.10;99.90;;;;;;5080093;28;20222;-86
2022/03/20 03:00:58;;;;;;;10.07;9.77;;;4.20;99.90;;;;;;5079941;28;20222;-87
2022/03/20 03:03:26;;;;;;;10.00;9.70;;;4.20;99.90;;;;;;5080094;28;20222;-87
2022/03/20 03:05:56;;;;;;;10.20;9.90;;;4.20;99.90;;;;;;5079825;28;20234;-85
2022/03/20 03:11:15;;;;;;;10.13;9.83;;;4.10;99.90;;;;;;5080570;28;20218;-86
2022/03/20 03:13:43;;;;;;;10.17;9.87;;;4.20;99.90;;;;;;5079370;28;20233;-85
2022/03/20 03:16:13;;;;;;;9.80;9.50;;;4.20;99.90;;;;;;5079352;28;20242;-85
2022/03/20 03:18:43;;;;;;;10.00;9.70;;;4.20;99.90;;;;;;5081748;28;20233;-85
2022/03/20 03:21:13;;;;;;;9.87;9.57;;;4.10;99.90;;;;;;5079882;28;20240;-85
2022/03/20 03:23:48;;;;;;;10.00;9.70;;;4.00;99.90;;;;;;5079766;28;20234;-86
2022/03/20 03:26:17;;;;;;;9.80;9.50;;;3.90;99.90;;;;;;5080265;28;20317;-86
2022/03/20 03:28:46;;;;;;;9.80;9.50;;;3.80;99.90;;;;;;5079938;28;20218;-85
2022/03/20 03:31:16;;;;;;;9.73;9.43;;;3.70;99.90;;;;;;5079913;28;20288;-87
2022/03/20 03:36:25;;;;;;;9.83;9.53;;;3.60;99.90;;;;;;5078310;28;20226;-85
2022/03/20 03:38:56;;;;;;;9.90;9.60;;;3.70;99.90;;;;;;5079830;28;20224;-86
2022/03/20 03:41:24;;;;;;;9.90;9.60;;;3.70;99.90;;;;;;5079868;28;20237;-86
2022/03/20 03:43:53;;;;;;;9.90;9.60;;;3.80;99.90;;;;;;5078824;28;20238;-86
2022/03/20 03:46:23;;;;;;;10.00;9.70;;;3.80;99.90;;;;;;5079709;28;20257;-86
2022/03/20 03:48:53;;;;;;;10.00;9.70;;;3.90;99.90;;;;;;5079868;28;20364;-85
2022/03/20 03:51:23;;;;;;;9.70;9.40;;;3.80;99.90;;;;;;5082463;28;20230;-86
2022/03/20 03:53:53;;;;;;;9.93;9.63;;;3.80;99.90;;;;;;5097982;28;20225;-85
2022/03/20 03:56:24;;;;;;;9.90;9.60;;;3.70;99.90;;;;;;5097709;28;20284;-85
2022/03/20 03:58:51;;;;;;;10.00;9.70;;;3.60;99.90;;;;;;5086562;28;20229;-85
2022/03/20 04:01:21;;;;;;;10.00;9.70;;;3.60;99.90;;;;;;5079546;28;20234;-85
2022/03/20 04:03:49;;;;;;;10.00;9.70;;;3.60;99.90;;;;;;5079136;28;20237;-85
2022/03/20 04:06:20;;;;;;;10.03;9.73;;;3.60;99.90;;;;;;5079938;28;20313;-86
2022/03/20 04:08:49;;;;;;;10.07;9.77;;;3.50;99.90;;;;;;5080323;28;20226;-85
2022/03/20 04:11:18;;;;;;;10.10;9.80;;;3.60;99.90;;;;;;5079466;28;20234;-85
2022/03/20 04:13:50;;;;;;;9.80;9.50;;;3.50;99.90;;;;;;5079109;28;20240;-85
2022/03/20 04:16:18;;;;;;;10.10;9.80;;;3.50;99.90;;;;;;5078580;28;20226;-85
2022/03/20 04:18:46;;;;;;;9.90;9.60;;;3.40;99.90;;;;;;5078888;28;20230;-85
2022/03/20 04:21:15;;;;;;;9.77;9.47;;;3.40;99.90;;;;;;5078762;28;20234;-85
2022/03/20 04:23:45;;;;;;;9.87;9.57;;;3.30;99.90;;;;;;5078658;28;20226;-85
2022/03/20 04:26:17;;;;;;;9.73;9.43;;;3.40;99.90;;;;;;5077776;28;20230;-85
2022/03/20 04:28:47;;;;;;;9.90;9.60;;;3.40;99.90;;;;;;5079388;28;20241;-85
2022/03/20 04:31:23;;;;;;;9.90;9.60;;;3.40;99.90;;;;;;5078873;28;20233;-85
2022/03/20 04:33:54;;;;;;;10.13;9.83;;;3.40;99.90;;;;;;5078684;28;20226;-85
2022/03/20 04:36:24;;;;;;;9.77;9.47;;;3.40;99.90;;;;;;5079085;28;20249;-85
2022/03/20 04:38:54;;;;;;;9.97;9.67;;;3.30;99.90;;;;;;5079727;28;20234;-85
2022/03/20 04:41:32;;;;;;;9.87;9.57;;;3.30;99.90;;;;;;5079251;28;20237;-85
2022/03/20 04:44:00;;;;;;;9.90;9.60;;;3.30;99.90;;;;;;5078865;28;20253;-86
2022/03/20 04:46:31;;;;;;;9.83;9.53;;;3.20;99.90;;;;;;5078895;28;20223;-86
2022/03/20 05:00:07;;;;;;;9.90;9.60;;;3.10;99.90;;;;;;5099202;28;20198;-85
2022/03/20 05:02:43;;;;;;;10.00;9.70;;;3.10;99.90;;;;;;5084427;28;20234;-84
2022/03/20 05:05:13;;;;;;;9.83;9.53;;;3.10;99.90;;;;;;5079039;28;20262;-85
2022/03/20 05:07:42;;;;;;;10.00;9.70;;;3.10;99.90;;;;;;5078754;28;20245;-84
2022/03/20 05:15:46;;;;;;;9.93;9.63;;;3.00;99.90;;;;;;5079000;28;20621;-85
2022/03/20 05:18:19;;;;;;;10.00;9.70;;;3.10;99.90;;;;;;5078295;28;20218;-85
2022/03/20 05:20:47;;;;;;;10.13;9.83;;;3.00;99.90;;;;;;5078573;28;20218;-86
2022/03/20 05:23:15;;;;;;;9.87;9.57;;;3.00;99.90;;;;;;5078330;28;20242;-85
2022/03/20 05:25:43;;;;;;;9.77;9.47;;;3.10;99.90;;;;;;5077722;28;20234;-86
2022/03/20 05:28:11;;;;;;;10.00;9.70;;;3.00;99.90;;;;;;5078377;28;20228;-86
2022/03/20 05:30:42;;;;;;;10.00;9.70;;;3.00;99.90;;;;;;5078597;28;20249;-85
2022/03/20 05:33:12;;;;;;;10.00;9.70;;;3.00;99.90;;;;;;5078714;28;20268;-86
2022/03/20 05:35:51;;;;;;;9.87;9.57;;;3.10;99.90;;;;;;5078468;28;20266;-85
2022/03/20 05:38:19;;;;;;;9.70;9.40;;;3.10;99.90;;;;;;5090248;28;20294;-85
2022/03/20 05:40:49;;;;;;;9.60;9.30;;;2.90;99.90;;;;;;5084368;28;20226;-86
2022/03/20 05:43:20;;;;;;;9.70;9.40;;;3.00;99.90;;;;;;5083989;28;20249;-86
2022/03/20 05:45:48;;;;;;;9.90;9.60;;;3.00;99.90;;;;;;5082847;28;20241;-85
2022/03/20 05:48:17;;;;;;;9.80;9.50;;;3.00;99.90;;;;;;5083571;28;20218;-85
2022/03/20 05:50:55;;;;;;;9.60;9.30;;;3.00;99.90;;;;;;5083158;28;20244;-85
2022/03/20 05:53:27;;;;;;;10.30;10.00;;;3.00;99.90;;;;;;5098752;28;20222;-85
2022/03/20 05:58:44;;;;;;;9.97;9.67;;;3.00;99.90;;;;;;5085282;28;20218;-85
2022/03/20 06:01:13;;;;;;;10.10;9.80;;;3.00;99.90;;;;;;5085466;28;20218;-86
2022/03/20 06:03:43;;;;;;;10.10;9.80;;;3.10;99.90;;;;;;5085392;28;20230;-86
2022/03/20 06:06:14;;;;;;;10.00;9.70;;;3.10;99.90;;;;;;5086389;28;20308;-85
2022/03/20 06:08:42;;;;;;;9.97;9.67;;;3.20;99.90;;;;;;5085583;28;20248;-85
2022/03/20 06:11:10;;;;;;;10.20;9.90;;;3.30;99.90;;;;;;5083701;28;20222;-85
2022/03/20 06:13:40;;;;;;;10.00;9.70;;;3.30;99.90;;;;;;5082251;28;20241;-86
2022/03/20 06:16:10;;;;;;;9.80;9.50;;;3.40;99.90;;;;;;5083399;28;20269;-86
2022/03/20 06:18:42;;;;;;;9.90;9.60;;;3.50;99.90;;;;;;5083427;28;20691;-85
2022/03/20 06:21:17;;;;;;;10.17;9.87;;;3.50;99.90;;;;;;5081538;28;20313;-86
2022/03/20 06:23:47;;;;;;;10.00;9.70;;;3.60;99.90;;;;;;5081106;28;20221;-85
2022/03/20 06:26:16;;;;;;;10.07;9.77;;;3.60;99.90;;;;;;5081215;28;20230;-84
2022/03/20 06:28:46;;;;;;;10.10;9.80;;;3.70;99.90;;;;;;5080912;28;20234;-85
2022/03/20 06:31:14;;;;;;;10.10;9.80;;;3.80;99.90;;;;;;5080262;28;20218;-85
2022/03/20 06:33:44;;;;;;;9.90;9.60;;;3.90;99.90;;;;;;5079972;28;20237;-85
2022/03/20 06:36:14;;;;;;;10.07;9.77;;;3.90;99.90;;;;;;5096688;22;20231;-81
2022/03/20 06:38:42;;;;;;;9.73;9.43;;;4.00;99.90;;;;;;5067653;28;20292;-81
2022/03/20 06:41:11;;;;;;;9.83;9.53;;;4.00;99.90;;;;;;5066328;28;20305;-81
2022/03/20 06:43:39;;;;;;;9.90;9.60;;;4.10;99.90;;;;;;5061262;28;20227;-80
2022/03/20 06:46:08;;;;;;;10.10;9.80;;;4.20;99.90;;;;;;5052503;28;20274;-81
2022/03/20 06:48:36;;;;;;;10.17;9.87;;;4.20;99.90;;;;;;5040938;28;20227;-81
2022/03/20 06:51:04;;;;;;;10.13;9.83;;;4.30;99.90;;;;;;5041602;28;20238;-81
2022/03/20 06:53:34;;;;;;;10.10;9.80;;;4.40;99.90;;;;;;5043109;28;20227;-81
2022/03/20 06:56:02;;;;;;;10.30;10.00;;;4.50;99.90;;;;;;5041007;28;20239;-81
2022/03/20 06:58:30;;;;;;;10.10;9.80;;;4.50;99.90;;;;;;5040695;28;20250;-79
2022/03/20 07:00:57;;;;;;;10.20;9.90;;;4.60;99.90;;;;;;5041668;28;20223;-79
2022/03/20 07:03:25;;;;;;;9.97;9.67;;;4.70;99.90;;;;;;5040899;28;20231;-80
2022/03/20 07:05:53;;;;;;;10.20;9.90;;;4.80;99.90;;;;;;5040256;28;20262;-80
2022/03/20 07:08:22;;;;;;;9.93;9.63;;;4.90;99.90;;;;;;5040917;28;20243;-80
2022/03/20 07:10:51;;;;;;;10.10;9.80;;;5.00;99.90;;;;;;5041049;28;20299;-80
2022/03/20 07:16:05;;;;;;;9.80;9.50;;;5.20;99.90;;;;;;5041420;28;20227;-80
2022/03/20 07:18:33;;;;;;;10.20;9.90;;;5.30;99.90;;;;;;5040761;28;20247;-80
2022/03/20 07:21:01;;;;;;;10.10;9.80;;;5.40;99.90;;;;;;5040570;28;20223;-80
2022/03/20 07:23:29;;;;;;;10.20;9.90;;;5.50;99.90;;;;;;5040608;28;20255;-79
2022/03/20 07:31:28;;;;;;;10.00;9.70;;;5.90;99.90;;;;;;5040735;28;20234;-80
2022/03/20 07:33:56;;;;;;;10.17;9.87;;;6.00;99.90;;;;;;5040607;28;20259;-80
2022/03/20 07:36:23;;;;;;;10.13;9.83;;;6.10;99.90;;;;;;5040798;28;20537;-80
2022/03/20 07:38:51;;;;;;;10.23;9.93;;;6.20;99.90;;;;;;5045162;28;20274;-79
2022/03/20 07:41:21;;;;;;;10.03;9.73;;;6.30;99.90;;;;;;5048930;28;20228;-81
2022/03/20 07:43:50;;;;;;;10.17;9.87;;;6.30;99.90;;;;;;5040860;28;20231;-80
2022/03/20 07:46:17;;;;;;;9.90;9.60;;;6.40;99.90;;;;;;5041517;28;20262;-81
2022/03/20 07:48:45;;;;;;;10.27;9.97;;;6.50;99.90;;;;;;5041797;28;20232;-81
2022/03/20 07:51:15;;;;;;;10.37;10.07;;;6.60;99.90;;;;;;5041406;28;20278;-80
2022/03/20 07:53:43;;;;;;;10.40;10.10;;;6.70;99.90;;;;;;5041231;28;20223;-80
2022/03/20 07:56:11;;;;;;;10.13;9.83;;;6.80;99.90;;;;;;5042154;28;20239;-81
2022/03/20 07:58:41;;;;;;;10.13;9.83;;;6.90;99.90;;;;;;5040888;28;20227;-81
2022/03/20 08:01:10;;;;;;;10.13;9.83;;;6.90;99.90;;;;;;5041099;28;20232;-81
2022/03/20 08:03:38;;;;;;;10.30;10.00;;;7.00;99.90;;;;;;5040525;28;20310;-81
2022/03/20 08:06:07;;;;;;;10.03;9.73;;;7.20;99.90;;;;;;5040895;28;20243;-80
2022/03/20 08:08:35;;;;;;;10.20;9.90;;;7.20;99.90;;;;;;5040863;28;20235;-81
2022/03/20 08:11:03;;;;;;;10.10;9.80;;;7.40;99.90;;;;;;5040787;28;20315;-81
2022/03/20 08:13:31;;;;;;;10.20;9.90;;;7.40;99.90;;;;;;5040115;28;20231;-81
2022/03/20 08:16:01;;;;;;;10.20;9.90;;;7.50;99.90;;;;;;5040075;28;20231;-80
2022/03/20 08:18:29;;;;;;;10.20;9.90;;;7.60;99.90;;;;;;5040300;28;20239;-81
2022/03/20 08:20:57;;;;;;;10.10;9.80;;;7.60;99.90;;;;;;5040588;28;20236;-80
2022/03/20 08:23:25;;;;;;;10.40;10.10;;;7.70;99.90;;;;;;5041024;28;20247;-81
2022/03/20 08:25:52;;;;;;;10.20;9.90;;;7.90;99.90;;;;;;5040006;28;20235;-80
2022/03/20 08:28:20;;;;;;;10.20;9.90;;;7.90;99.90;;;;;;5040894;28;20223;-80
2022/03/20 08:30:48;;;;;;;10.20;9.90;;;7.90;99.90;;;;;;5040538;28;20290;-80
2022/03/20 08:33:17;;;;;;;10.23;9.93;;;8.10;99.90;;;;;;5040074;28;20235;-81
2022/03/20 08:35:45;;;;;;;10.82;10.52;;;8.20;99.90;;;;;;5038429;28;20404;-79
2022/03/20 08:38:13;;;;;;;10.30;10.00;;;8.40;99.90;;;;;;5039614;28;20235;-81
2022/03/20 08:40:40;;;;;;;10.57;10.27;;;8.50;99.90;;;;;;5048105;28;20211;-81
2022/03/20 08:43:13;;;;;;;10.30;10.00;;;8.60;99.90;;;;;;5045704;28;20231;-81
2022/03/20 08:45:41;;;;;;;10.20;9.90;;;8.60;99.90;;;;;;5043302;28;20318;-82
2022/03/20 08:48:10;;;;;;;10.00;9.70;;;8.80;99.90;;;;;;5047284;28;20285;-80
2022/03/20 08:50:40;;;;;;;10.17;9.87;;;8.90;99.90;;;;;;5055025;28;20246;-82
2022/03/20 08:53:08;;;;;;;9.93;9.63;;;8.90;99.90;;;;;;5059556;28;20229;-80
2022/03/20 08:55:36;;;;;;;10.20;9.90;;;9.00;99.90;;;;;;5059983;28;20231;-81
2022/03/20 08:58:04;;;;;;;9.97;9.67;;;9.10;99.90;;;;;;5059591;28;20246;-82
2022/03/20 09:00:33;;;;;;;10.10;9.80;;;9.30;99.90;;;;;;5059284;28;20196;-80
2022/03/20 09:03:01;;;;;;;10.00;9.70;;;9.40;99.90;;;;;;5048819;28;20311;-82
2022/03/20 09:05:29;;;;;;;9.90;9.60;;;9.60;99.90;;;;;;5041937;28;20262;-82
2022/03/20 09:07:58;;;;;;;10.03;9.73;;;9.70;99.90;;;;;;5039751;28;20223;-82
2022/03/20 09:10:27;;;;;;;10.00;9.70;;;9.70;99.90;;;;;;5039323;28;20258;-81
2022/03/20 09:12:57;;;;;;;10.10;9.80;;;9.70;99.90;;;;;;5040875;28;21066;-82
2022/03/20 09:15:26;;;;;;;10.00;9.70;;;9.70;99.90;;;;;;5041390;28;20236;-82
2022/03/20 09:20:43;;;;;;;10.33;10.03;;;10.10;99.90;;;;;;5047380;28;20203;-81
2022/03/20 09:23:15;;;;;;;9.87;9.57;;;10.10;99.90;;;;;;5047382;28;20235;-81
2022/03/20 09:25:43;;;;;;;9.90;9.60;;;10.20;99.90;;;;;;5044699;28;20242;-82
2022/03/20 09:28:13;;;;;;;10.13;9.83;;;10.30;99.90;;;;;;5042704;28;20223;-82
2022/03/20 09:30:43;;;;;;;10.10;9.80;;;10.50;99.90;;;;;;5054138;28;20228;-81
2022/03/20 09:33:11;;;;;;;10.07;9.77;;;10.80;99.90;;;;;;5054147;28;20227;-82
2022/03/20 09:35:40;;;;;;;10.03;9.73;;;10.80;99.90;;;;;;5056514;28;20243;-81
2022/03/20 09:38:08;;;;;;;10.10;9.80;;;10.80;99.90;;;;;;5050503;28;20228;-82
2022/03/20 09:40:40;;;;;;;10.13;9.83;;;10.90;99.90;;;;;;5044371;28;20236;-82
2022/03/20 09:43:09;;;;;;;9.97;9.67;;;10.80;99.90;;;;;;5041678;28;20242;-81
2022/03/20 09:45:38;;;;;;;9.97;9.67;;;11.00;99.90;;;;;;5044437;28;20247;-82
2022/03/20 09:48:06;;;;;;;10.23;9.93;;;11.20;99.90;;;;;;5041496;28;20405;-81
2022/03/20 09:50:35;;;;;;;9.80;9.50;;;11.40;99.90;;;;;;5040910;28;20231;-81
2022/03/20 09:53:03;;;;;;;10.10;9.80;;;11.50;99.90;;;;;;5041485;28;20235;-81
2022/03/20 09:55:31;;;;;;;9.80;9.50;;;11.70;99.90;;;;;;5041128;28;20294;-81
2022/03/20 09:58:15;;;;;;;9.93;9.63;;;11.80;99.90;;;;;;5042792;28;20232;-82
2022/03/20 10:00:42;;;;;;;9.80;9.50;;;11.90;99.90;;;;;;5041351;28;20227;-84
2022/03/20 10:03:17;;;;;;;9.87;9.57;;;12.20;99.90;;;;;;5040959;28;20251;-81
2022/03/20 10:05:45;;;;;;;9.57;9.27;;;12.30;99.90;;;;;;5039682;28;20230;-82
2022/03/20 10:08:17;;;;;;;9.47;9.17;;;12.30;99.90;;;;;;5039113;28;20224;-82
2022/03/20 10:10:47;;;;;;;9.70;9.40;;;12.30;99.90;;;;;;5039164;28;20802;-81
2022/03/20 10:13:16;;;;;;;9.93;9.63;;;12.20;99.90;;;;;;5038960;28;20246;-82
2022/03/20 10:15:45;;;;;;;9.77;9.47;;;12.30;99.90;;;;;;5040351;28;20314;-83
2022/03/20 10:18:18;;;;;;;9.60;9.30;;;12.40;99.90;;;;;;5036512;28;20231;-83
2022/03/20 10:20:52;;;;;;;9.47;9.17;;;12.60;99.90;;;;;;5035243;28;20228;-85
2022/03/20 10:23:32;;;;;;;9.53;9.23;;;12.50;99.90;;;;;;5037457;28;20232;-86
2022/03/20 10:26:07;;;;;;;9.87;9.57;;;12.50;99.90;;;;;;5041014;28;20239;-83
2022/03/20 10:28:39;;;;;;;9.73;9.43;;;12.50;99.90;;;;;;5039336;28;20239;-76
2022/03/20 10:31:09;;;;;;;9.53;9.23;;;12.40;99.90;;;;;;5038342;28;20232;-77
2022/03/20 10:33:40;;;;;;;9.60;9.30;;;12.60;99.90;;;;;;5051781;28;20231;-82
2022/03/20 10:36:17;;;;;;;9.40;9.10;;;12.70;99.90;;;;;;5058867;28;20241;-81
2022/03/20 10:38:46;;;;;;;9.63;9.33;;;13.00;99.90;;;;;;5059337;28;20211;-81
2022/03/20 10:41:20;;;;;;;9.83;9.53;;;13.30;99.90;;;;;;5060331;28;20206;-83
2022/03/20 10:43:51;;;;;;;9.67;9.37;;;13.40;99.90;;;;;;5049208;28;20222;-84
2022/03/20 10:46:29;;;;;;;9.50;9.20;;;13.40;99.90;;;;;;5043441;28;20335;-82
2022/03/20 10:49:00;;;;;;;9.80;9.50;;;13.70;99.90;;;;;;5038898;28;20239;-81
2022/03/20 10:51:38;;;;;;;9.93;9.63;;;13.80;99.90;;;;;;5044830;28;20219;-82
2022/03/20 10:54:10;;;;;;;10.17;9.87;;;13.70;99.90;;;;;;5042921;28;20281;-81
2022/03/20 10:56:39;;;;;;;9.67;9.37;;;13.80;99.90;;;;;;5041677;28;20254;-80
2022/03/20 10:59:17;;;;;;;9.90;9.60;;;14.10;99.90;;;;;;5042113;28;20228;-81
2022/03/20 11:01:45;;;;;;;9.80;9.50;;;14.20;99.90;;;;;;5046649;28;20252;-79
2022/03/20 11:04:15;;;;;;;9.80;9.50;;;14.20;99.90;;;;;;5049204;28;20231;-82
2022/03/20 11:07:07;;;;;;;9.90;9.60;;;14.40;99.90;;;;;;5042820;28;20247;-82
2022/03/20 11:09:35;;;;;;;10.20;9.90;;;14.60;99.90;;;;;;5041782;28;20283;-80
2022/03/20 11:12:08;;;;;;;10.23;9.93;;;15.00;99.90;;;;;;5041285;28;20265;-81
2022/03/20 11:14:38;;;;;;;9.90;9.60;;;15.00;99.90;;;;;;5041518;28;20302;-83
2022/03/20 11:17:08;;;;;;;10.23;9.93;;;15.00;99.90;;;;;;5042298;28;20246;-81
2022/03/20 11:19:41;;;;;;;10.20;9.90;;;15.30;99.90;;;;;;5041303;28;20413;-81
2022/03/20 11:22:12;;;;;;;9.80;9.50;;;15.30;99.90;;;;;;5042712;28;20270;-86
2022/03/20 11:24:44;;;;;;;10.00;9.70;;;15.20;99.90;;;;;;5044661;28;20231;-81
2022/03/20 11:27:13;;;;;;;10.10;9.80;;;15.00;99.90;;;;;;5042235;28;20250;-80
2022/03/20 11:29:49;;;;;;;10.07;9.77;;;15.00;99.90;;;;;;5042105;28;20241;-81
2022/03/20 11:32:17;;;;;;;10.05;9.75;;;15.20;99.90;;;;;;5046586;28;20298;-78
2022/03/20 11:34:47;;;;;;;10.25;9.95;;;15.20;99.90;;;;;;5043276;28;20314;-79
2022/03/20 11:37:16;;;;;;;10.10;9.80;;;15.40;99.90;;;;;;5048107;28;20251;-81
2022/03/20 11:40:10;;;;;;;9.63;9.32;;;15.50;99.90;;;;;;5048242;28;20239;-81
2022/03/20 11:42:39;;;;;;;9.95;9.65;;;15.50;99.90;;;;;;5044906;28;20227;-80
2022/03/20 11:45:16;;;;;;;10.30;10.00;;;15.20;99.90;;;;;;5040965;28;20227;-82
2022/03/20 11:47:46;;;;;;;10.10;9.80;;;15.50;99.90;;;;;;5040415;28;20781;-81
2022/03/20 11:50:19;;;;;;;10.43;10.13;;;15.70;99.90;;;;;;5041022;28;20250;-82
2022/03/20 11:52:55;;;;;;;10.40;10.10;;;15.90;99.90;;;;;;5041038;28;20223;-79
2022/03/20 11:55:42;;;;;;;10.50;10.20;;;16.10;99.90;;;;;;5041954;28;20278;-81
2022/03/20 11:58:35;;;;;;;10.07;9.77;;;16.20;99.90;;;;;;5049009;28;20239;-79
2022/03/20 12:01:06;;;;;;;10.50;10.20;;;16.40;99.90;;;;;;5051392;28;20234;-80
2022/03/20 12:03:54;;;;;;;10.38;10.07;;;16.90;99.90;;;;;;5049655;28;20239;-85
2022/03/20 12:07:10;;;;;;;;;;;;;;;;;;;;;
2022/03/20 12:10:08;;;;;;;9.90;9.60;;;17.00;99.90;;;;;;5040009;28;20243;-78
2022/03/20 12:12:54;;;;;;;10.35;10.05;;;16.90;99.90;;;;;;5040531;28;20231;-79
2022/03/20 12:15:24;;;;;;;10.30;10.00;;;17.20;99.90;;;;;;5040398;28;20258;-81
2022/03/20 12:18:02;;;;;;;10.32;10.02;;;17.50;99.90;;;;;;5040235;28;20232;-78
2022/03/20 12:21:02;;;;;;;10.50;10.20;;;17.40;99.90;;;;;;5039293;28;20238;-78
2022/03/20 12:23:43;;;;;;;10.55;10.25;;;17.60;99.90;;;;;;5039524;28;20433;-79
2022/03/20 12:26:46;;;;;;;10.30;10.00;;;18.00;99.90;;;;;;5039332;28;20329;-78
2022/03/20 12:29:35;;;;;;;10.90;10.60;;;17.80;99.90;;;;;;4938021;29;20438;-81
2022/03/20 12:32:06;;;;;;;10.57;10.27;;;17.40;99.90;;;;;;5032949;28;20219;-79
2022/03/20 12:34:36;;;;;;;10.68;10.38;;;17.60;99.90;;;;;;5036784;28;20318;-79
2022/03/20 12:37:49;;;;;;;10.40;10.10;;;17.50;99.90;;;;;;5039185;28;20227;-80
2022/03/20 12:40:19;;;;;;;10.52;10.23;;;17.60;99.90;;;;;;5005708;28;20227;-81
2022/03/20 12:42:58;;;;;;;10.65;10.35;;;17.80;99.90;;;;;;5037768;28;20228;-79
2022/03/20 12:45:28;;;;;;;10.60;10.30;;;18.10;99.90;;;;;;5040210;28;20226;-79
2022/03/20 12:47:59;;;;;;;10.48;10.18;;;18.10;99.90;;;;;;5035972;28;20226;-77
2022/03/20 12:50:31;;;;;;;10.30;10.00;;;18.10;99.90;;;;;;5039053;28;20243;-78
2022/03/20 12:53:06;;;;;;;10.18;9.88;;;18.20;99.90;;;;;;5034873;28;20228;-78
2022/03/20 12:55:35;;;;;;;10.30;10.00;;;18.30;99.90;;;;;;5036193;28;20286;-78
2022/03/20 13:04:56;;;;;;;10.32;10.02;;;18.50;99.90;;;;;;5000939;28;20315;-87
2022/03/20 13:12:47;;;;;;;10.48;10.18;;;19.20;99.90;;;;;;4906527;29;20228;-89
2022/03/20 13:16:15;;;;;;;10.63;10.32;;;18.50;99.90;;;;;;4879075;29;20238;-88
2022/03/20 13:22:47;;;;;;;10.50;10.20;;;18.10;99.90;;;;;;4913099;28;20230;-89
2022/03/20 13:25:50;;;;;;;11.00;10.70;;;17.90;99.10;;;;;;5045929;28;20421;-88
2022/03/20 13:29:12;;;;;;;10.10;9.80;;;17.50;97.90;;;;;;5049057;28;20238;-87
2022/03/20 13:38:14;;;;;;;10.23;9.93;;;17.70;99.90;;;;;;5044615;28;20227;-84
2022/03/20 13:40:47;;;;;;;10.20;9.90;;;18.20;98.30;;;;;;5046179;28;20250;-84
2022/03/20 13:43:24;;;;;;;10.30;10.00;;;18.30;99.00;;;;;;5046589;28;20254;-84
2022/03/20 13:49:51;;;;;;;10.45;10.15;;;18.90;97.70;;;;;;5040306;28;20234;-84
2022/03/20 13:52:42;;;;;;;10.60;10.30;;;18.40;97.70;;;;;;5047184;28;20231;-83
2022/03/20 13:59:06;;;;;;;10.10;9.80;;;18.60;97.70;;;;;;4992839;28;20223;-85
2022/03/20 14:01:44;;;;;;;10.00;9.70;;;18.50;97.40;;;;;;5060268;28;20215;-85
2022/03/20 14:04:14;;;;;;;10.25;9.95;;;18.40;96.60;;;;;;5062017;28;20279;-86
2022/03/20 14:06:44;;;;;;;10.10;9.80;;;18.10;95.90;;;;;;5062793;28;20220;-86
2022/03/20 14:09:33;;;;;;;9.82;9.52;;;17.90;96.20;;;;;;5062664;28;20228;-84
2022/03/20 14:12:01;;;;;;;10.07;9.77;;;18.00;97.10;;;;;;5063581;28;20231;-86
2022/03/20 14:14:46;;;;;;;10.10;9.80;;;17.90;96.50;;;;;;5063697;28;20215;-85
2022/03/20 14:17:17;;;;;;;9.95;9.65;;;18.30;97.60;;;;;;5062960;28;20216;-84
2022/03/20 14:19:48;;;;;;;10.10;9.80;;;18.90;97.00;;;;;;5062078;28;20242;-85
2022/03/20 14:25:46;;;;;;;10.20;9.90;;;18.90;95.80;;;;;;4985204;28;20214;-85